createdAt,value
2019-02-26T00:01:23.460Z,22.35
2019-02-26T00:03:52.392Z,21.27
2019-02-26T00:06:24.886Z,20.77
2019-02-26T00:08:54.110Z,20.72
2019-02-26T00:11:26.363Z,19.65
2019-02-26T00:13:56.767Z,18.35
2019-02-26T00:16:25.528Z,18.92
2019-02-26T00:18:56.225Z,19.30
2019-02-26T00:21:26.413Z,17.27
2019-02-26T00:23:56.728Z,18.45
2019-02-26T00:26:25.934Z,17.35
2019-02-26T00:28:56.757Z,17.37
2019-02-26T00:31:28.156Z,17.48
2019-02-26T00:33:57.282Z,17.37
2019-02-26T00:36:27.187Z,17.10
2019-02-26T00:38:58.450Z,17.27
2019-02-26T00:41:29.062Z,16.12
2019-02-26T00:43:59.932Z,16.93
2019-02-26T00:46:32.439Z,16.30
2019-02-26T00:49:03.026Z,16.55
2019-02-26T00:51:32.309Z,17.10
2019-02-26T00:54:02.006Z,16.48
2019-02-26T00:56:34.048Z,12.07
2019-02-26T00:59:03.462Z,17.92
2019-02-26T01:01:32.686Z,18.12
2019-02-26T01:04:01.933Z,17.77
2019-02-26T01:06:33.434Z,17.20
2019-02-26T01:09:04.129Z,17.45
2019-02-26T01:11:33.102Z,17.57
2019-02-26T01:14:02.367Z,17.80
2019-02-26T01:16:31.602Z,18.32
2019-02-26T01:19:00.821Z,18.00
2019-02-26T01:21:31.153Z,18.02
2019-02-26T01:24:01.733Z,19.10
2019-02-26T01:26:31.997Z,18.98
2019-02-26T01:29:01.281Z,19.77
2019-02-26T01:31:32.095Z,20.65
2019-02-26T01:34:01.451Z,19.30
2019-02-26T01:36:30.686Z,20.15
2019-02-26T01:38:59.960Z,19.77
2019-02-26T01:41:29.195Z,19.90
2019-02-26T01:43:58.424Z,20.55
2019-02-26T01:46:27.670Z,21.57
2019-02-26T01:48:57.558Z,21.23
2019-02-26T01:51:28.631Z,21.02
2019-02-26T01:53:57.972Z,21.57
2019-02-26T01:56:27.219Z,23.50
2019-02-26T01:58:59.327Z,21.48
2019-02-26T02:01:27.395Z,21.73
2019-02-26T02:03:56.599Z,21.75
2019-02-26T02:06:25.848Z,21.50
2019-02-26T02:08:55.802Z,21.10
2019-02-26T02:11:28.196Z,21.50
2019-02-26T02:13:55.968Z,20.32
2019-02-26T02:16:28.001Z,20.65
2019-02-26T02:18:58.172Z,20.02
2019-02-26T02:21:30.445Z,20.50
2019-02-26T02:23:58.101Z,21.48
2019-02-26T02:26:27.359Z,20.40
2019-02-26T02:28:56.593Z,21.95
2019-02-26T02:31:30.319Z,21.00
2019-02-26T02:33:56.775Z,20.60
2019-02-26T02:36:26.574Z,20.88
2019-02-26T02:38:56.011Z,21.87
2019-02-26T02:41:25.208Z,21.60
2019-02-26T02:43:54.415Z,22.45
2019-02-26T02:46:23.665Z,22.22
2019-02-26T02:48:52.918Z,21.00
2019-02-26T02:51:22.151Z,21.25
2019-02-26T02:53:54.155Z,21.33
2019-02-26T02:56:22.343Z,21.20
2019-02-26T02:58:51.765Z,20.97
2019-02-26T03:01:22.955Z,21.17
2019-02-26T03:03:53.794Z,21.50
2019-02-26T03:06:24.223Z,21.17
2019-02-26T03:08:53.948Z,20.45
2019-02-26T03:11:23.302Z,21.40
2019-02-26T03:13:53.841Z,21.15
2019-02-26T03:16:25.077Z,22.20
2019-02-26T03:18:54.134Z,21.02
2019-02-26T03:21:24.822Z,21.40
2019-02-26T03:23:54.369Z,20.62
2019-02-26T03:26:25.864Z,21.17
2019-02-26T03:28:54.609Z,20.57
2019-02-26T03:31:28.800Z,20.10
2019-02-26T03:34:00.083Z,20.25
2019-02-26T03:36:25.756Z,20.92
2019-02-26T03:38:57.271Z,21.82
2019-02-26T03:41:28.309Z,20.88
2019-02-26T03:43:58.473Z,21.02
2019-02-26T03:46:27.856Z,20.82
2019-02-26T03:48:57.092Z,21.20
2019-02-26T03:51:26.322Z,21.27
2019-02-26T03:53:55.548Z,20.45
2019-02-26T03:56:24.873Z,20.10
2019-02-26T03:58:57.074Z,20.57
2019-02-26T04:01:25.127Z,21.12
2019-02-26T04:03:55.106Z,20.85
2019-02-26T04:06:25.312Z,20.72
2019-02-26T04:08:55.942Z,21.82
2019-02-26T04:11:27.686Z,21.10
2019-02-26T04:13:56.739Z,20.62
2019-02-26T04:16:26.065Z,20.05
2019-02-26T04:18:55.277Z,20.30
2019-02-26T04:21:25.971Z,20.57
2019-02-26T04:23:55.208Z,20.52
2019-02-26T04:27:11.748Z,20.82
2019-02-26T04:30:06.310Z,21.30
2019-02-26T04:33:20.270Z,21.50
2019-02-26T04:36:16.889Z,21.27
2019-02-26T04:39:16.306Z,20.97
2019-02-26T04:41:57.956Z,20.32
2019-02-26T04:45:10.647Z,21.93
2019-02-26T04:47:40.929Z,21.68
2019-02-26T04:50:10.185Z,20.90
2019-02-26T04:52:41.224Z,20.97
2019-02-26T04:55:10.365Z,20.52
2019-02-26T04:57:42.416Z,21.40
2019-02-26T05:00:10.822Z,21.37
2019-02-26T05:02:40.036Z,21.05
2019-02-26T05:05:09.365Z,21.40
2019-02-26T05:07:41.332Z,22.15
2019-02-26T05:10:09.669Z,21.70
2019-02-26T05:12:40.177Z,22.17
2019-02-26T05:15:13.965Z,21.35
2019-02-26T05:17:40.472Z,21.00
2019-02-26T05:20:12.978Z,21.70
2019-02-26T05:22:40.766Z,21.57
2019-02-26T05:25:13.991Z,21.77
2019-02-26T05:27:42.825Z,21.75
2019-02-26T05:30:13.905Z,21.48
2019-02-26T05:32:42.972Z,22.00
2019-02-26T05:35:14.497Z,21.75
2019-02-26T05:37:43.198Z,22.22
2019-02-26T05:40:15.325Z,22.53
2019-02-26T05:42:43.410Z,23.20
2019-02-26T05:45:12.689Z,23.10
2019-02-26T05:47:43.047Z,22.55
2019-02-26T05:50:16.176Z,22.53
2019-02-26T05:52:43.825Z,23.25
2019-02-26T05:55:14.600Z,23.07
2019-02-26T05:57:44.042Z,22.85
2019-02-26T06:00:18.234Z,23.35
2019-02-26T06:02:48.537Z,23.67
2019-02-26T06:05:18.377Z,23.23
2019-02-26T06:07:47.569Z,23.35
2019-02-26T06:10:18.889Z,23.20
2019-02-26T06:12:47.831Z,23.57
2019-02-26T06:15:17.054Z,22.87
2019-02-26T06:17:48.120Z,25.62
2019-02-26T06:20:19.681Z,25.60
2019-02-26T06:22:48.915Z,27.37
2019-02-26T06:25:23.651Z,26.67
2019-02-26T06:27:49.130Z,25.17
2019-02-26T06:30:18.527Z,25.95
2019-02-26T06:32:47.794Z,26.50
2019-02-26T06:35:19.397Z,26.90
2019-02-26T06:37:48.146Z,26.40
2019-02-26T06:40:17.435Z,25.37
2019-02-26T06:42:46.702Z,25.23
2019-02-26T06:45:16.797Z,26.20
2019-02-26T06:47:48.606Z,26.30
2019-02-26T06:50:18.815Z,26.53
2019-02-26T06:52:50.578Z,27.85
2019-02-26T06:55:19.308Z,27.40
2019-02-26T06:57:50.914Z,27.32
2019-02-26T07:00:23.849Z,26.00
2019-02-26T07:02:50.526Z,27.13
2019-02-26T07:05:23.863Z,26.53
2019-02-26T07:07:54.175Z,26.82
2019-02-26T07:10:26.014Z,27.27
2019-02-26T07:12:52.655Z,26.97
2019-02-26T07:15:21.894Z,26.50
2019-02-26T07:17:51.140Z,27.80
2019-02-26T07:20:20.367Z,27.98
2019-02-26T07:22:51.632Z,29.30
2019-02-26T07:25:20.623Z,26.87
2019-02-26T07:27:51.384Z,27.32
2019-02-26T07:30:20.871Z,28.20
2019-02-26T07:32:50.145Z,27.45
2019-02-26T07:35:19.401Z,27.42
2019-02-26T07:37:48.720Z,27.65
2019-02-26T07:40:18.706Z,26.53
2019-02-26T07:42:49.225Z,26.10
2019-02-26T07:45:21.907Z,26.30
2019-02-26T07:47:51.458Z,26.62
2019-02-26T07:50:20.632Z,24.10
2019-02-26T07:52:52.040Z,23.35
2019-02-26T07:55:20.853Z,22.93
2019-02-26T07:57:51.232Z,22.22
2019-02-26T08:00:22.299Z,21.70
2019-02-26T08:02:54.015Z,21.60
2019-02-26T08:05:25.724Z,22.30
2019-02-26T08:07:56.689Z,22.20
2019-02-26T08:10:25.912Z,22.60
2019-02-26T08:12:56.625Z,21.52
2019-02-26T08:15:27.988Z,22.35
2019-02-26T08:17:58.449Z,21.70
2019-02-26T08:20:30.222Z,21.37
2019-02-26T08:23:01.315Z,21.27
2019-02-26T08:25:30.344Z,20.85
2019-02-26T08:28:01.324Z,21.00
2019-02-26T08:30:30.663Z,21.62
2019-02-26T08:33:04.162Z,21.95
2019-02-26T08:35:30.909Z,21.97
2019-02-26T08:38:00.178Z,22.50
2019-02-26T08:40:29.460Z,22.23
2019-02-26T08:42:58.687Z,22.37
2019-02-26T08:45:28.138Z,21.73
2019-02-26T08:47:57.365Z,23.32
2019-02-26T08:50:30.688Z,22.30
2019-02-26T08:52:58.465Z,23.00
2019-02-26T08:55:27.854Z,22.10
2019-02-26T08:57:57.118Z,22.70
2019-02-26T09:00:26.390Z,22.93
2019-02-26T09:02:56.649Z,22.42
2019-02-26T09:05:29.242Z,22.50
2019-02-26T09:07:57.505Z,21.85
2019-02-26T09:10:26.774Z,22.25
2019-02-26T09:12:56.015Z,23.35
2019-02-26T09:15:25.301Z,22.52
2019-02-26T09:17:54.607Z,23.25
2019-02-26T09:20:23.873Z,23.63
2019-02-26T09:22:54.579Z,22.62
2019-02-26T09:25:26.117Z,21.87
2019-02-26T09:27:55.086Z,22.22
2019-02-26T09:30:24.357Z,21.97
2019-02-26T09:32:53.648Z,22.02
2019-02-26T09:35:26.887Z,21.17
2019-02-26T09:37:56.383Z,20.32
2019-02-26T09:40:26.609Z,19.83
2019-02-26T09:42:58.143Z,21.82
2019-02-26T09:45:30.012Z,20.60
2019-02-26T09:47:58.316Z,19.55
2019-02-26T09:50:27.590Z,20.40
2019-02-26T09:52:59.157Z,19.90
2019-02-26T09:55:29.614Z,20.57
2019-02-26T09:57:58.871Z,19.15
2019-02-26T10:00:29.525Z,20.50
2019-02-26T10:02:58.983Z,20.37
2019-02-26T10:05:28.253Z,20.95
2019-02-26T10:07:59.999Z,20.85
2019-02-26T10:10:31.092Z,21.30
2019-02-26T10:13:02.042Z,21.05
2019-02-26T10:15:32.359Z,21.80
2019-02-26T10:18:04.025Z,20.60
2019-02-26T10:20:32.935Z,21.33
2019-02-26T10:23:04.251Z,21.20
2019-02-26T10:25:34.944Z,20.95
2019-02-26T10:28:08.740Z,21.48
2019-02-26T10:30:38.291Z,21.25
2019-02-26T10:33:08.351Z,21.50
2019-02-26T10:35:39.692Z,20.77
2019-02-26T10:38:11.520Z,21.35
2019-02-26T10:40:50.626Z,21.52
2019-02-26T10:43:10.545Z,21.75
2019-02-26T10:45:42.451Z,21.62
2019-02-26T10:48:10.833Z,21.27
2019-02-26T10:50:42.521Z,17.27
2019-02-26T10:53:13.785Z,19.07
2019-02-26T10:55:42.310Z,20.52
2019-02-26T10:58:13.209Z,20.35
2019-02-26T11:00:43.242Z,19.42
2019-02-26T11:03:14.854Z,20.65
2019-02-26T11:05:45.222Z,18.27
2019-02-26T11:08:14.525Z,18.02
2019-02-26T11:10:44.905Z,17.95
2019-02-26T11:13:15.880Z,16.50
2019-02-26T11:15:48.250Z,15.68
2019-02-26T11:18:18.042Z,13.98
2019-02-26T11:20:50.156Z,12.25
2019-02-26T11:23:18.781Z,12.47
2019-02-26T11:25:48.024Z,13.72
2019-02-26T11:28:17.270Z,13.43
2019-02-26T11:30:49.039Z,16.07
2019-02-26T11:33:17.588Z,16.07
2019-02-26T11:35:48.905Z,16.37
2019-02-26T11:38:19.510Z,17.07
2019-02-26T11:40:48.782Z,17.57
2019-02-26T11:43:22.563Z,17.55
2019-02-26T11:45:49.131Z,16.87
2019-02-26T11:48:20.658Z,16.02
2019-02-26T11:50:49.402Z,16.40
2019-02-26T11:53:18.814Z,17.42
2019-02-26T11:55:51.378Z,16.27
2019-02-26T11:58:21.814Z,15.90
2019-02-26T12:00:52.634Z,15.98
2019-02-26T12:03:24.894Z,15.60
2019-02-26T12:05:54.200Z,15.65
2019-02-26T12:08:25.749Z,14.80
2019-02-26T12:10:58.010Z,15.32
2019-02-26T12:13:27.720Z,14.83
2019-02-26T12:15:57.074Z,13.50
2019-02-26T12:18:26.318Z,13.35
2019-02-26T12:20:55.568Z,12.35
2019-02-26T12:23:24.786Z,10.80
2019-02-26T12:25:55.512Z,9.28
2019-02-26T12:28:26.049Z,9.70
2019-02-26T12:30:58.398Z,9.00
2019-02-26T12:33:27.070Z,8.70
2019-02-26T12:35:59.000Z,10.03
2019-02-26T12:38:27.264Z,10.05
2019-02-26T12:40:56.568Z,9.13
2019-02-26T12:43:25.829Z,9.35
2019-02-26T12:45:56.606Z,8.98
2019-02-26T12:48:26.077Z,9.08
2019-02-26T12:50:57.763Z,9.25
2019-02-26T12:53:26.321Z,7.17
2019-02-26T12:55:56.635Z,8.40
2019-02-26T12:58:27.879Z,8.95
2019-02-26T13:00:57.315Z,8.63
2019-02-26T13:03:26.517Z,8.48
2019-02-26T13:05:55.773Z,9.63
2019-02-26T13:08:25.159Z,9.28
2019-02-26T13:10:57.779Z,10.03
2019-02-26T13:13:25.450Z,10.35
2019-02-26T13:15:54.724Z,10.50
2019-02-26T13:18:23.961Z,9.70
2019-02-26T13:20:59.469Z,9.80
2019-02-26T13:23:24.165Z,10.80
2019-02-26T13:25:53.457Z,10.40
2019-02-26T13:28:29.276Z,9.90
2019-02-26T13:30:53.725Z,10.93
2019-02-26T13:33:27.506Z,10.58
2019-02-26T13:36:00.422Z,10.15
2019-02-26T13:38:34.003Z,9.33
2019-02-26T13:41:19.914Z,8.75
2019-02-26T13:43:28.625Z,8.75
2019-02-26T13:45:57.971Z,10.18
2019-02-26T13:48:27.276Z,10.53
2019-02-26T13:50:56.741Z,8.93
2019-02-26T13:53:26.022Z,9.25
2019-02-26T13:55:55.249Z,8.83
2019-02-26T13:58:24.571Z,8.90
2019-02-26T14:00:53.813Z,9.10
2019-02-26T14:03:23.170Z,8.38
2019-02-26T14:05:52.407Z,8.00
2019-02-26T14:08:21.684Z,6.97
2019-02-26T14:10:50.974Z,8.05
2019-02-26T14:13:20.429Z,7.30
2019-02-26T14:15:49.719Z,7.67
2019-02-26T14:18:19.043Z,7.15
2019-02-26T14:20:48.282Z,7.53
2019-02-26T14:23:17.637Z,8.30
2019-02-26T14:25:46.963Z,7.00
2019-02-26T14:28:16.220Z,7.83
2019-02-26T14:30:45.528Z,7.27
2019-02-26T14:33:14.918Z,7.55
2019-02-26T14:35:44.173Z,6.85
2019-02-26T14:38:13.481Z,8.08
2019-02-26T14:40:42.762Z,6.50
2019-02-26T14:46:49.586Z,7.08
2019-02-26T14:49:19.076Z,6.30
2019-02-26T14:51:48.335Z,7.58
2019-02-26T14:54:17.747Z,6.80
2019-02-26T14:56:47.045Z,6.25
2019-02-26T14:59:16.389Z,5.47
2019-02-26T15:01:45.728Z,5.33
2019-02-26T15:04:14.939Z,5.70
2019-02-26T15:06:44.292Z,5.00
2019-02-26T15:09:13.524Z,5.28
2019-02-26T15:11:42.808Z,4.65
2019-02-26T15:14:12.108Z,4.72
2019-02-26T15:16:41.345Z,4.35
2019-02-26T15:19:10.602Z,4.00
2019-02-26T15:21:39.942Z,4.35
2019-02-26T15:24:09.432Z,4.25
2019-02-26T15:26:38.737Z,4.22
2019-02-26T15:29:07.987Z,4.17
2019-02-26T15:31:37.317Z,4.15
2019-02-26T15:34:06.616Z,3.70
2019-02-26T15:36:36.089Z,3.92
2019-02-26T15:39:06.471Z,3.50
2019-02-26T15:41:35.746Z,3.55
2019-02-26T15:44:05.070Z,3.95
2019-02-26T15:46:37.783Z,3.62
2019-02-26T15:51:37.065Z,3.87
2019-02-26T15:54:06.297Z,4.85
2019-02-26T15:56:35.649Z,3.97
2019-02-26T15:59:05.307Z,3.65
2019-02-26T16:01:34.584Z,3.70
2019-02-26T16:04:03.880Z,4.00
2019-02-26T16:06:33.178Z,3.55
2019-02-26T16:09:02.497Z,3.95
2019-02-26T16:11:31.844Z,3.37
2019-02-26T16:14:01.216Z,3.42
2019-02-26T16:16:30.508Z,3.52
2019-02-26T16:19:00.731Z,3.20
2019-02-26T16:21:30.500Z,3.50
2019-02-26T16:23:59.822Z,3.15
2019-02-26T16:26:29.102Z,3.33
2019-02-26T16:29:00.918Z,2.90
2019-02-26T16:31:29.937Z,3.33
2019-02-26T16:33:59.938Z,3.47
2019-02-26T16:36:31.724Z,2.95
2019-02-26T16:39:00.178Z,3.10
2019-02-26T16:41:29.456Z,3.50
2019-02-26T16:43:58.738Z,3.85
2019-02-26T16:46:28.059Z,3.95
2019-02-26T16:48:57.330Z,4.17
2019-02-26T16:51:26.656Z,3.50
2019-02-26T16:53:55.967Z,3.65
2019-02-26T16:56:25.223Z,3.37
2019-02-26T16:58:54.710Z,3.80
2019-02-26T17:01:24.097Z,3.60
2019-02-26T17:03:53.386Z,3.40
2019-02-26T17:06:22.701Z,4.07
2019-02-26T17:08:51.970Z,5.37
2019-02-26T17:11:21.446Z,5.03
2019-02-26T17:13:50.691Z,4.85
2019-02-26T17:16:20.146Z,4.40
2019-02-26T17:18:49.535Z,4.65
2019-02-26T17:21:18.834Z,5.50
2019-02-26T17:23:48.271Z,5.30
2019-02-26T17:26:17.570Z,5.15
2019-02-26T17:28:46.920Z,5.47
2019-02-26T17:31:16.276Z,5.83
2019-02-26T17:33:46.729Z,5.50
2019-02-26T17:36:16.486Z,6.33
2019-02-26T17:38:45.737Z,6.37
2019-02-26T17:41:15.025Z,5.97
2019-02-26T17:43:44.290Z,6.50
2019-02-26T17:46:13.541Z,6.80
2019-02-26T17:48:43.708Z,7.72
2019-02-26T17:51:13.157Z,9.35
2019-02-26T17:53:42.409Z,9.58
2019-02-26T17:56:11.795Z,9.60
2019-02-26T17:58:41.720Z,8.78
2019-02-26T18:01:12.096Z,8.08
2019-02-26T18:03:44.576Z,7.42
2019-02-26T18:06:13.162Z,8.40
2019-02-26T18:08:42.452Z,7.40
2019-02-26T18:11:11.730Z,7.53
2019-02-26T18:13:41.079Z,7.65
2019-02-26T18:16:10.335Z,7.62
2019-02-26T18:18:42.746Z,7.95
2019-02-26T18:23:40.384Z,8.48
2019-02-26T18:26:09.669Z,9.10
2019-02-26T18:28:38.973Z,8.45
2019-02-26T18:31:08.350Z,8.45
2019-02-26T18:33:37.939Z,9.70
2019-02-26T18:36:07.208Z,8.45
2019-02-26T18:38:36.490Z,8.90
2019-02-26T18:41:05.808Z,8.95
2019-02-26T18:43:35.073Z,7.87
2019-02-26T18:46:04.403Z,9.05
2019-02-26T18:48:33.684Z,8.93
2019-02-26T18:51:03.056Z,8.30
2019-02-26T18:53:32.341Z,8.75
2019-02-26T18:56:03.995Z,9.13
2019-02-26T18:58:32.665Z,10.80
2019-02-26T19:01:01.922Z,10.68
2019-02-26T19:03:31.201Z,11.57
2019-02-26T19:06:03.659Z,12.00
2019-02-26T19:08:34.625Z,12.23
2019-02-26T19:11:04.221Z,13.32
2019-02-26T19:13:35.621Z,12.93
2019-02-26T19:16:04.750Z,12.37
2019-02-26T19:18:35.756Z,12.45
2019-02-26T19:21:05.301Z,13.30
2019-02-26T19:23:34.607Z,12.50
2019-02-26T19:26:03.945Z,13.48
2019-02-26T19:28:37.665Z,14.83
2019-02-26T19:31:09.343Z,15.03
2019-02-26T19:33:38.227Z,14.68
2019-02-26T19:36:07.641Z,14.98
2019-02-26T19:38:36.986Z,14.58
2019-02-26T19:41:12.375Z,15.95
2019-02-26T19:43:40.324Z,15.88
2019-02-26T19:46:10.596Z,16.95
2019-02-26T19:48:40.305Z,15.43
2019-02-26T19:51:09.658Z,16.17
2019-02-26T19:53:38.955Z,16.07
2019-02-26T19:56:08.290Z,16.05
2019-02-26T19:58:40.620Z,15.88
2019-02-26T20:01:08.698Z,12.18
2019-02-26T20:03:40.212Z,15.90
2019-02-26T20:06:09.345Z,16.23
2019-02-26T20:08:38.755Z,16.50
2019-02-26T20:11:08.136Z,17.15
2019-02-26T20:13:42.079Z,17.60
2019-02-26T20:16:08.623Z,17.37
2019-02-26T20:18:37.977Z,19.10
2019-02-26T20:21:07.319Z,21.05
2019-02-26T20:23:36.691Z,21.60
2019-02-26T20:26:06.464Z,21.37
2019-02-26T20:28:35.999Z,21.85
2019-02-26T20:31:05.384Z,22.48
2019-02-26T20:33:34.778Z,22.62
2019-02-26T20:36:04.096Z,21.35
2019-02-26T20:38:35.293Z,21.23
2019-02-26T20:41:04.575Z,22.03
2019-02-26T20:43:36.389Z,22.85
2019-02-26T20:46:04.915Z,20.45
2019-02-26T20:48:36.552Z,21.45
2019-02-26T20:51:05.394Z,21.52
2019-02-26T20:53:36.634Z,22.55
2019-02-26T20:56:05.914Z,21.85
2019-02-26T20:58:35.349Z,22.00
2019-02-26T21:01:04.642Z,23.33
2019-02-26T21:03:34.005Z,22.58
2019-02-26T21:06:03.592Z,22.40
2019-02-26T21:08:32.942Z,22.22
2019-02-26T21:11:02.329Z,22.55
2019-02-26T21:13:34.651Z,22.82
2019-02-26T21:16:02.799Z,16.60
2019-02-26T21:18:32.105Z,22.67
2019-02-26T21:21:01.514Z,23.40
2019-02-26T21:23:32.516Z,24.10
2019-02-26T21:26:01.967Z,25.90
2019-02-26T21:28:33.308Z,26.65
2019-02-26T21:31:02.353Z,25.92
2019-02-26T21:33:31.711Z,25.02
2019-02-26T21:36:01.031Z,28.05
2019-02-26T21:38:30.327Z,27.82
2019-02-26T21:40:59.682Z,30.48
2019-02-26T21:43:28.997Z,35.92
2019-02-26T21:45:58.432Z,36.40
2019-02-26T21:48:27.677Z,29.85
2019-02-26T21:50:57.002Z,28.47
2019-02-26T21:53:26.277Z,28.15
2019-02-26T21:55:55.774Z,28.00
2019-02-26T21:58:26.834Z,29.72
2019-02-26T22:00:56.134Z,30.02
2019-02-26T22:03:25.407Z,28.42
2019-02-26T22:05:54.807Z,28.30
2019-02-26T22:08:24.718Z,30.23
2019-02-26T22:10:54.617Z,29.77
2019-02-26T22:13:23.967Z,27.95
2019-02-26T22:15:53.275Z,23.75
2019-02-26T22:18:22.599Z,23.30
2019-02-26T22:20:51.996Z,22.58
2019-02-26T22:23:21.382Z,21.70
2019-02-26T22:25:52.533Z,20.70
2019-02-26T22:28:23.079Z,20.30
2019-02-26T22:30:55.713Z,19.50
2019-02-26T22:33:23.549Z,19.52
2019-02-26T22:35:52.871Z,19.95
2019-02-26T22:38:22.282Z,20.27
2019-02-26T22:40:51.543Z,20.57
2019-02-26T22:43:20.975Z,19.27
2019-02-26T22:45:50.215Z,19.05
2019-02-26T22:48:19.556Z,17.77
2019-02-26T22:50:48.807Z,18.12
2019-02-26T22:53:18.076Z,16.37
2019-02-26T22:55:49.592Z,17.48
2019-02-26T22:58:18.354Z,17.05
2019-02-26T23:01:30.329Z,17.45
2019-02-26T23:03:53.530Z,16.35
2019-02-26T23:06:22.783Z,16.20
2019-02-26T23:08:52.200Z,16.85
2019-02-26T23:11:21.896Z,17.00
2019-02-26T23:13:51.227Z,17.10
2019-02-26T23:16:20.512Z,17.30
2019-02-26T23:18:49.809Z,17.55
2019-02-26T23:21:19.416Z,18.45
2019-02-26T23:23:48.874Z,17.57
2019-02-26T23:26:18.169Z,17.55
2019-02-26T23:28:47.430Z,17.27
2019-02-26T23:31:17.586Z,16.40
2019-02-26T23:33:48.587Z,16.52
2019-02-26T23:36:17.959Z,16.32
2019-02-26T23:38:47.948Z,15.63
2019-02-26T23:41:17.216Z,16.50
2019-02-26T23:43:46.490Z,16.87
2019-02-26T23:46:15.759Z,16.55
2019-02-26T23:48:45.019Z,16.32
2019-02-26T23:51:14.318Z,16.77
2019-02-26T23:53:43.555Z,16.50
2019-02-26T23:56:12.888Z,16.85
2019-02-26T23:58:42.153Z,16.80
